Time;durP1;ratioP1;P1;durP2;ratioP2;P2;SDS_P1;SDS_P2;PMS_P1;PMS_P2;Temp;Humidity;BMP_temperature;BMP_pressure;BME280_temperature;BME280_humidity;BME280_pressure;Samples;Min_cycle;Max_cycle;Signal;HPM_P1;HPM_P2
2023/06/23 00:01:00;;;;;;;4.78;4.20;;;;;;;;;;5049922;28;20069;-82
2023/06/23 00:03:31;;;;;;;7.60;4.80;;;;;;;;;;5035233;28;20108;-84
2023/06/23 00:05:56;;;;;;;;;;;;;;;;;;5036163;28;20021;-84
2023/06/23 00:08:22;;;;;;;8.07;5.20;;;;;;;;;;5035500;28;19906;-84
2023/06/23 00:10:49;;;;;;;5.80;5.00;;;;;;;;;;5036664;28;20260;-84
2023/06/23 00:13:15;;;;;;;9.02;5.47;;;;;;;;;;5018539;28;20371;-84
2023/06/23 00:15:52;;;;;;;6.32;5.38;;;;;;;;;;5035065;28;20029;-84
2023/06/23 00:18:17;;;;;;;7.93;6.13;;;;;;;;;;5035109;28;20025;-86
2023/06/23 00:20:43;;;;;;;16.00;5.97;;;;;;;;;;5034667;28;20525;-85
2023/06/23 00:23:10;;;;;;;6.45;5.53;;;;;;;;;;5035865;28;20030;-84
2023/06/23 00:25:37;;;;;;;8.05;5.75;;;;;;;;;;5036118;28;20133;-85
2023/06/23 00:28:02;;;;;;;7.32;5.85;;;;;;;;;;5035749;28;20025;-85
2023/06/23 00:30:29;;;;;;;6.40;5.55;;;;;;;;;;5035165;28;20017;-84
2023/06/23 00:32:54;;;;;;;8.77;6.28;;;;;;;;;;5034936;28;20524;-85
2023/06/23 00:35:19;;;;;;;8.23;5.73;;;;;;;;;;5035860;28;20033;-85
2023/06/23 00:37:45;;;;;;;10.07;6.40;;;;;;;;;;5018207;28;20287;-85
2023/06/23 00:40:11;;;;;;;8.73;6.78;;;;;;;;;;5036097;28;20124;-84
2023/06/23 00:42:46;;;;;;;8.38;6.82;;;;;;;;;;5035543;28;20045;-84
2023/06/23 00:45:20;;;;;;;8.48;6.75;;;;;;;;;;5035735;28;20061;-84
2023/06/23 00:47:46;;;;;;;9.27;6.80;;;;;;;;;;5035589;28;20370;-85
2023/06/23 00:50:16;;;;;;;11.00;6.97;;;;;;;;;;5034179;28;20044;-85
2023/06/23 00:52:52;;;;;;;10.68;7.28;;;;;;;;;;5034280;28;20045;-85
2023/06/23 00:55:22;;;;;;;8.30;6.07;;;;;;;;;;5035675;28;20026;-85
2023/06/23 00:57:47;;;;;;;12.35;6.35;;;;;;;;;;5035769;28;20021;-84
2023/06/23 01:00:18;;;;;;;8.45;6.15;;;;;;;;;;5035099;28;20374;-85
2023/06/23 01:02:49;;;;;;;10.05;6.03;;;;;;;;;;5034650;28;20107;-84
2023/06/23 01:05:16;;;;;;;8.90;6.72;;;;;;;;;;5035121;28;20087;-83
2023/06/23 01:07:46;;;;;;;8.90;6.38;;;;;;;;;;5035213;28;20025;-83
2023/06/23 01:10:22;;;;;;;7.70;6.17;;;;;;;;;;5035448;28;20067;-84
2023/06/23 01:12:51;;;;;;;11.60;6.30;;;;;;;;;;5035046;28;20407;-83
2023/06/23 01:15:28;;;;;;;10.57;6.82;;;;;;;;;;5035110;28;20035;-83
2023/06/23 01:18:02;;;;;;;10.32;6.60;;;;;;;;;;5034858;28;20028;-83
2023/06/23 01:20:30;;;;;;;7.18;5.82;;;;;;;;;;5033609;28;20029;-83
2023/06/23 01:23:26;;;;;;;7.85;6.10;;;;;;;;;;5035086;28;20021;-84
2023/06/23 01:25:55;;;;;;;8.10;5.68;;;;;;;;;;5033456;28;20116;-84
2023/06/23 01:28:28;;;;;;;8.35;5.82;;;;;;;;;;5034628;28;20467;-84
2023/06/23 01:30:55;;;;;;;7.18;5.95;;;;;;;;;;5034917;28;20156;-83
2023/06/23 01:33:22;;;;;;;7.07;6.22;;;;;;;;;;5034506;28;20359;-84
2023/06/23 01:35:51;;;;;;;7.80;6.03;;;;;;;;;;5016677;28;20026;-85
2023/06/23 01:38:27;;;;;;;8.43;5.68;;;;;;;;;;5032420;28;20074;-82
2023/06/23 01:40:59;;;;;;;11.18;6.30;;;;;;;;;;5033428;28;20017;-82
2023/06/23 01:43:29;;;;;;;7.78;5.68;;;;;;;;;;5032270;28;20034;-82
2023/06/23 01:46:08;;;;;;;7.65;5.88;;;;;;;;;;5033386;28;20052;-82
2023/06/23 01:48:42;;;;;;;7.13;6.15;;;;;;;;;;5032977;28;20113;-82
2023/06/23 01:51:14;;;;;;;8.57;6.45;;;;;;;;;;5033137;28;20092;-82
2023/06/23 01:53:41;;;;;;;8.20;6.28;;;;;;;;;;5031662;28;20080;-83
2023/06/23 01:56:07;;;;;;;7.30;5.97;;;;;;;;;;5032878;28;20100;-80
2023/06/23 01:58:49;;;;;;;9.25;6.22;;;;;;;;;;5033200;28;20033;-82
2023/06/23 02:01:16;;;;;;;11.45;7.75;;;;;;;;;;5032606;28;20044;-83
2023/06/23 02:03:44;;;;;;;19.00;9.73;;;;;;;;;;5032417;28;20064;-83
2023/06/23 02:06:25;;;;;;;16.83;8.60;;;;;;;;;;5032650;28;20382;-82
2023/06/23 02:08:51;;;;;;;15.32;8.80;;;;;;;;;;5032568;28;20493;-83
2023/06/23 02:11:18;;;;;;;11.52;7.75;;;;;;;;;;5032540;28;20414;-83
2023/06/23 02:13:45;;;;;;;13.15;8.25;;;;;;;;;;5016112;28;20086;-84
2023/06/23 02:16:12;;;;;;;12.77;6.82;;;;;;;;;;5032535;28;20108;-82
2023/06/23 02:18:39;;;;;;;9.05;6.45;;;;;;;;;;5033551;28;20025;-83
2023/06/23 02:21:05;;;;;;;8.82;6.60;;;;;;;;;;5033748;28;20032;-83
2023/06/23 02:23:40;;;;;;;8.43;6.90;;;;;;;;;;5032361;28;20025;-82
2023/06/23 02:26:07;;;;;;;11.43;6.68;;;;;;;;;;5032272;28;20569;-83
2023/06/23 02:28:32;;;;;;;8.60;5.97;;;;;;;;;;5032411;28;20431;-82
2023/06/23 02:30:59;;;;;;;10.82;6.07;;;;;;;;;;5033512;28;20021;-83
2023/06/23 02:33:26;;;;;;;12.27;6.35;;;;;;;;;;5031996;28;20029;-82
2023/06/23 02:35:53;;;;;;;6.80;5.38;;;;;;;;;;5032424;28;20068;-81
2023/06/23 02:38:21;;;;;;;11.43;5.80;;;;;;;;;;5032279;28;20073;-83
2023/06/23 02:40:49;;;;;;;9.82;4.88;;;;;;;;;;5032225;28;20021;-82
2023/06/23 02:43:33;;;;;;;8.05;4.90;;;;;;;;;;5031924;28;20462;-83
2023/06/23 02:46:00;;;;;;;11.35;4.72;;;;;;;;;;5032047;28;20037;-81
2023/06/23 02:48:30;;;;;;;7.32;4.55;;;;;;;;;;5032015;28;20097;-82
2023/06/23 02:50:57;;;;;;;8.38;4.68;;;;;;;;;;5033389;28;20101;-81
2023/06/23 02:53:25;;;;;;;6.70;3.88;;;;;;;;;;5032761;28;20025;-82
2023/06/23 02:56:09;;;;;;;8.55;4.72;;;;;;;;;;5031882;28;20036;-81
2023/06/23 02:58:40;;;;;;;7.97;4.28;;;;;;;;;;5033476;28;20026;-82
2023/06/23 03:01:08;;;;;;;10.32;4.30;;;;;;;;;;5033096;28;20021;-82
2023/06/23 03:03:36;;;;;;;7.15;4.63;;;;;;;;;;5031818;28;20132;-83
2023/06/23 03:06:03;;;;;;;8.55;3.92;;;;;;;;;;5033149;28;20072;-82
2023/06/23 03:08:29;;;;;;;7.75;4.15;;;;;;;;;;5033151;28;20458;-83
2023/06/23 03:10:56;;;;;;;12.10;4.80;;;;;;;;;;5031545;28;20474;-83
2023/06/23 03:13:25;;;;;;;6.22;4.25;;;;;;;;;;5032899;28;20470;-83
2023/06/23 03:15:58;;;;;;;7.00;4.60;;;;;;;;;;5032791;28;20100;-81
2023/06/23 03:18:33;;;;;;;6.75;5.18;;;;;;;;;;5033123;28;20022;-83
2023/06/23 03:21:03;;;;;;;8.50;5.78;;;;;;;;;;5032943;28;20022;-84
2023/06/23 03:23:30;;;;;;;11.40;5.72;;;;;;;;;;5033141;28;20033;-84
2023/06/23 03:25:56;;;;;;;8.05;5.63;;;;;;;;;;5033042;28;20131;-84
2023/06/23 03:28:31;;;;;;;8.23;6.50;;;;;;;;;;5033037;28;20029;-84
2023/06/23 03:31:02;;;;;;;8.60;5.82;;;;;;;;;;5034099;28;20022;-84
2023/06/23 03:33:36;;;;;;;7.78;6.68;;;;;;;;;;5033239;28;20118;-82
2023/06/23 03:36:23;;;;;;;9.18;6.50;;;;;;;;;;5052319;28;20038;-82
2023/06/23 03:39:09;;;;;;;11.50;6.30;;;;;;;;;;5056833;28;20018;-83
2023/06/23 03:41:35;;;;;;;9.07;6.53;;;;;;;;;;5057566;28;20029;-84
2023/06/23 03:44:13;;;;;;;10.45;6.90;;;;;;;;;;5036108;28;20021;-84
2023/06/23 03:46:42;;;;;;;15.98;7.50;;;;;;;;;;5034510;28;20435;-84
2023/06/23 03:49:08;;;;;;;10.93;7.40;;;;;;;;;;5033935;28;20017;-85
2023/06/23 03:51:36;;;;;;;13.38;7.00;;;;;;;;;;5033125;28;20104;-86
2023/06/23 03:54:03;;;;;;;10.25;6.72;;;;;;;;;;5032908;28;20060;-84
2023/06/23 03:56:30;;;;;;;11.10;7.07;;;;;;;;;;5033227;28;20402;-84
2023/06/23 03:58:57;;;;;;;11.77;7.68;;;;;;;;;;5031504;28;20044;-84
2023/06/23 04:01:22;;;;;;;11.48;7.55;;;;;;;;;;5031465;28;20145;-83
2023/06/23 04:03:49;;;;;;;17.52;8.80;;;;;;;;;;5031030;28;20092;-84
2023/06/23 04:06:16;;;;;;;9.82;7.05;;;;;;;;;;5034498;28;20084;-86
2023/06/23 04:08:42;;;;;;;10.30;7.20;;;;;;;;;;5034871;28;20444;-84
2023/06/23 04:11:16;;;;;;;14.02;8.52;;;;;;;;;;5018669;28;20017;-83
2023/06/23 04:13:43;;;;;;;13.73;7.95;;;;;;;;;;5036429;28;20017;-84
2023/06/23 04:16:17;;;;;;;12.48;8.40;;;;;;;;;;5035145;28;20029;-84
2023/06/23 04:18:43;;;;;;;10.98;7.38;;;;;;;;;;5036616;28;20100;-83
2023/06/23 04:21:10;;;;;;;11.43;7.95;;;;;;;;;;5035648;28;20067;-83
2023/06/23 04:23:37;;;;;;;19.20;9.30;;;;;;;;;;5035201;28;20018;-83
2023/06/23 04:26:12;;;;;;;12.52;8.73;;;;;;;;;;5034894;28;20026;-84
2023/06/23 04:28:41;;;;;;;20.65;8.93;;;;;;;;;;5036132;28;20029;-84
2023/06/23 04:31:07;;;;;;;12.45;8.48;;;;;;;;;;5034732;28;20465;-85
2023/06/23 04:33:35;;;;;;;14.70;9.27;;;;;;;;;;5036011;28;20032;-81
2023/06/23 04:36:05;;;;;;;12.48;8.65;;;;;;;;;;5034734;28;20025;-80
2023/06/23 04:38:33;;;;;;;13.60;8.30;;;;;;;;;;5017966;28;20120;-81
2023/06/23 04:41:00;;;;;;;14.35;8.68;;;;;;;;;;5034213;28;20036;-81
2023/06/23 04:43:34;;;;;;;13.13;8.63;;;;;;;;;;5034026;28;20044;-79
2023/06/23 04:46:02;;;;;;;15.50;9.68;;;;;;;;;;5035572;28;20034;-81
2023/06/23 04:48:30;;;;;;;17.08;9.73;;;;;;;;;;5035575;28;20021;-79
2023/06/23 04:50:57;;;;;;;14.85;10.32;;;;;;;;;;5033720;28;20116;-74
2023/06/23 04:53:25;;;;;;;12.52;9.18;;;;;;;;;;5035051;28;20029;-72
2023/06/23 04:55:53;;;;;;;19.05;10.85;;;;;;;;;;5017487;28;20033;-73
2023/06/23 04:58:28;;;;;;;15.60;10.02;;;;;;;;;;5033725;28;20056;-73
2023/06/23 05:00:54;;;;;;;15.80;10.55;;;;;;;;;;5034926;28;20018;-75
2023/06/23 05:03:22;;;;;;;13.73;10.80;;;;;;;;;;5034894;28;20053;-77
2023/06/23 05:05:51;;;;;;;16.48;12.57;;;;;;;;;;5035370;28;20013;-77
2023/06/23 05:08:17;;;;;;;15.80;11.40;;;;;;;;;;5035461;28;20020;-78
2023/06/23 05:10:59;;;;;;;14.93;11.88;;;;;;;;;;5033757;28;20055;-79
2023/06/23 05:13:28;;;;;;;18.27;12.05;;;;;;;;;;5035138;28;20072;-78
2023/06/23 05:15:55;;;;;;;19.33;12.10;;;;;;;;;;5033758;28;20025;-76
2023/06/23 05:18:22;;;;;;;18.48;12.38;;;;;;;;;;5033431;28;20033;-78
2023/06/23 05:20:50;;;;;;;19.40;13.18;;;;;;;;;;5034055;28;20056;-76
2023/06/23 05:23:17;;;;;;;20.98;13.15;;;;;;;;;;5034479;28;20042;-76
2023/06/23 05:25:45;;;;;;;16.70;12.40;;;;;;;;;;5034663;28;20509;-79
2023/06/23 05:28:20;;;;;;;16.98;11.50;;;;;;;;;;5034179;28;20351;-77
2023/06/23 05:30:46;;;;;;;16.92;11.40;;;;;;;;;;5036422;28;20028;-78
2023/06/23 05:33:13;;;;;;;19.58;12.80;;;;;;;;;;5038321;28;20115;-75
2023/06/23 05:35:44;;;;;;;16.38;12.25;;;;;;;;;;5043667;28;20072;-73
2023/06/23 05:38:10;;;;;;;16.73;12.32;;;;;;;;;;5047515;28;20370;-70
2023/06/23 05:40:44;;;;;;;17.20;12.30;;;;;;;;;;5036916;28;20026;-72
2023/06/23 05:43:09;;;;;;;18.75;12.25;;;;;;;;;;5034187;28;20025;-72
2023/06/23 05:45:35;;;;;;;20.47;11.87;;;;;;;;;;5032846;28;20017;-73
2023/06/23 05:48:22;;;;;;;21.02;12.88;;;;;;;;;;5033558;28;20274;-73
2023/06/23 05:50:54;;;;;;;19.60;12.43;;;;;;;;;;5033154;28;20096;-73
2023/06/23 05:53:20;;;;;;;14.13;10.82;;;;;;;;;;5033281;28;20025;-74
2023/06/23 05:56:07;;;;;;;18.08;11.07;;;;;;;;;;5033075;28;20083;-74
2023/06/23 05:58:33;;;;;;;18.65;11.90;;;;;;;;;;5033146;28;20029;-73
2023/06/23 06:01:07;;;;;;;15.75;10.80;;;;;;;;;;5032844;28;20467;-74
2023/06/23 06:03:36;;;;;;;15.27;10.48;;;;;;;;;;5032253;28;20128;-73
2023/06/23 06:06:02;;;;;;;18.00;10.77;;;;;;;;;;5032937;28;20021;-73
2023/06/23 06:08:28;;;;;;;18.05;10.55;;;;;;;;;;5030986;28;20033;-74
2023/06/23 06:11:07;;;;;;;14.20;10.23;;;;;;;;;;5031725;28;20029;-73
2023/06/23 06:13:37;;;;;;;15.80;9.77;;;;;;;;;;5033538;28;20382;-73
2023/06/23 06:16:04;;;;;;;15.73;9.30;;;;;;;;;;5032653;28;20052;-74
2023/06/23 06:18:39;;;;;;;15.02;10.90;;;;;;;;;;5032869;28;20033;-75
2023/06/23 06:21:07;;;;;;;16.25;8.77;;;;;;;;;;5033881;28;20488;-73
2023/06/23 06:23:33;;;;;;;15.45;8.70;;;;;;;;;;5033792;28;20029;-73
2023/06/23 06:26:07;;;;;;;11.80;8.48;;;;;;;;;;5033869;28;20018;-73
2023/06/23 06:28:33;;;;;;;10.95;8.00;;;;;;;;;;5033063;28;20026;-75
2023/06/23 06:30:59;;;;;;;11.70;8.80;;;;;;;;;;5032713;28;20108;-74
2023/06/23 06:33:35;;;;;;;13.80;8.00;;;;;;;;;;5032654;28;20024;-74
2023/06/23 06:36:04;;;;;;;13.02;8.40;;;;;;;;;;5033818;28;20104;-73
2023/06/23 06:38:34;;;;;;;11.35;8.00;;;;;;;;;;5032383;28;20021;-74
2023/06/23 06:41:02;;;;;;;11.63;7.43;;;;;;;;;;5033484;28;20017;-73
2023/06/23 06:43:27;;;;;;;12.57;6.60;;;;;;;;;;5032289;28;20382;-74
2023/06/23 06:46:01;;;;;;;12.23;6.90;;;;;;;;;;5033388;28;20100;-74
2023/06/23 06:48:27;;;;;;;12.82;7.03;;;;;;;;;;5033374;28;20013;-73
2023/06/23 06:50:57;;;;;;;11.73;6.28;;;;;;;;;;5033480;28;20021;-73
2023/06/23 06:53:25;;;;;;;10.23;6.30;;;;;;;;;;5032110;28;20052;-74
2023/06/23 06:55:51;;;;;;;11.02;5.65;;;;;;;;;;5032165;28;20028;-73
2023/06/23 06:58:18;;;;;;;12.95;6.00;;;;;;;;;;5033511;28;20101;-73
2023/06/23 07:00:43;;;;;;;10.85;5.40;;;;;;;;;;5032118;28;20143;-75
2023/06/23 07:03:12;;;;;;;10.20;5.18;;;;;;;;;;5033487;28;20073;-74
2023/06/23 07:05:39;;;;;;;10.85;5.40;;;;;;;;;;5033368;28;20021;-73
2023/06/23 07:08:05;;;;;;;10.40;4.72;;;;;;;;;;5033142;28;20064;-73
2023/06/23 07:10:32;;;;;;;7.75;4.57;;;;;;;;;;5033461;28;20071;-74
2023/06/23 07:12:57;;;;;;;8.55;4.40;;;;;;;;;;5033304;28;20533;-73
2023/06/23 07:15:24;;;;;;;8.40;5.00;;;;;;;;;;5033321;28;20095;-74
2023/06/23 07:17:50;;;;;;;10.38;4.75;;;;;;;;;;5033411;28;20268;-73
2023/06/23 07:20:17;;;;;;;7.35;4.03;;;;;;;;;;5033185;28;20087;-73
2023/06/23 07:22:44;;;;;;;14.90;5.15;;;;;;;;;;5032865;28;20492;-73
2023/06/23 07:25:09;;;;;;;14.07;5.38;;;;;;;;;;5033437;28;20152;-73
2023/06/23 07:27:35;;;;;;;9.20;5.03;;;;;;;;;;5033417;28;20105;-75
2023/06/23 07:30:01;;;;;;;7.63;4.15;;;;;;;;;;5031900;28;20068;-74
2023/06/23 07:32:27;;;;;;;7.03;4.05;;;;;;;;;;5031927;28;20459;-74
2023/06/23 07:34:53;;;;;;;9.30;4.47;;;;;;;;;;5033085;28;20026;-73
2023/06/23 07:37:20;;;;;;;10.88;4.28;;;;;;;;;;5031494;28;20071;-73
2023/06/23 07:39:48;;;;;;;8.85;4.30;;;;;;;;;;5033157;28;20037;-71
2023/06/23 07:42:14;;;;;;;11.50;4.63;;;;;;;;;;5036979;28;20036;-71
2023/06/23 07:44:43;;;;;;;7.65;4.10;;;;;;;;;;5035588;28;20038;-70
2023/06/23 07:47:09;;;;;;;9.20;4.88;;;;;;;;;;5036937;28;20097;-71
2023/06/23 07:49:35;;;;;;;9.25;6.18;;;;;;;;;;5036560;28;20045;-71
2023/06/23 07:52:04;;;;;;;10.30;5.45;;;;;;;;;;5046317;28;20063;-71
2023/06/23 07:54:30;;;;;;;11.38;6.35;;;;;;;;;;5055116;28;20437;-71
2023/06/23 07:56:56;;;;;;;11.88;6.28;;;;;;;;;;5050580;28;20489;-74
2023/06/23 07:59:22;;;;;;;10.55;6.22;;;;;;;;;;5044563;28;20032;-74
2023/06/23 08:01:47;;;;;;;13.27;7.30;;;;;;;;;;5035138;28;20112;-72
2023/06/23 08:04:27;;;;;;;13.32;7.57;;;;;;;;;;5036142;28;20133;-71
2023/06/23 08:06:53;;;;;;;15.77;9.07;;;;;;;;;;5035091;28;20037;-71
2023/06/23 08:09:20;;;;;;;14.60;8.57;;;;;;;;;;5036186;28;20076;-73
2023/06/23 08:11:46;;;;;;;12.30;8.63;;;;;;;;;;5036472;28;20020;-71
2023/06/23 08:14:12;;;;;;;17.13;9.57;;;;;;;;;;5036443;28;20022;-69
2023/06/23 08:16:38;;;;;;;11.55;9.90;;;;;;;;;;5036365;28;20041;-72
2023/06/23 08:19:04;;;;;;;15.18;9.77;;;;;;;;;;5035047;28;20482;-70
2023/06/23 08:21:30;;;;;;;12.02;10.45;;;;;;;;;;5039009;28;20017;-71
2023/06/23 08:23:57;;;;;;;18.58;11.23;;;;;;;;;;5036473;28;20037;-70
2023/06/23 08:26:24;;;;;;;17.70;9.52;;;;;;;;;;5036267;28;20076;-70
2023/06/23 08:28:50;;;;;;;13.57;9.20;;;;;;;;;;5034710;28;20079;-70
2023/06/23 08:31:17;;;;;;;16.80;10.25;;;;;;;;;;5036241;28;20018;-71
2023/06/23 08:33:44;;;;;;;13.10;10.13;;;;;;;;;;5035836;28;20544;-70
2023/06/23 08:36:10;;;;;;;11.00;9.70;;;;;;;;;;5036081;28;20498;-72
2023/06/23 08:38:36;;;;;;;12.25;9.90;;;;;;;;;;5042758;28;20029;-69
2023/06/23 08:41:04;;;;;;;11.30;10.20;;;;;;;;;;5036224;28;20037;-69
2023/06/23 08:43:30;;;;;;;12.18;9.65;;;;;;;;;;5034257;28;20451;-71
2023/06/23 08:45:56;;;;;;;12.35;9.68;;;;;;;;;;5035412;28;20080;-72
2023/06/23 08:48:25;;;;;;;22.75;11.27;;;;;;;;;;5034691;28;20013;-71
2023/06/23 08:50:52;;;;;;;11.20;8.95;;;;;;;;;;5034453;28;20044;-73
2023/06/23 08:53:19;;;;;;;12.10;9.45;;;;;;;;;;5033559;28;20363;-71
2023/06/23 08:55:45;;;;;;;12.85;9.50;;;;;;;;;;5034037;28;20021;-69
2023/06/23 08:58:10;;;;;;;14.70;9.57;;;;;;;;;;5035204;28;20370;-69
2023/06/23 09:00:37;;;;;;;13.43;8.33;;;;;;;;;;5034874;28;20030;-68
2023/06/23 09:03:04;;;;;;;14.88;8.48;;;;;;;;;;5035056;28;20042;-70
2023/06/23 09:05:30;;;;;;;12.63;9.05;;;;;;;;;;5035013;28;20056;-71
2023/06/23 09:07:55;;;;;;;10.20;8.63;;;;;;;;;;5034920;28;20024;-72
2023/06/23 09:10:24;;;;;;;15.40;9.30;;;;;;;;;;5034988;28;20018;-71
2023/06/23 09:13:11;;;;;;;11.07;8.50;;;;;;;;;;5034915;28;20094;-71
2023/06/23 09:15:45;;;;;;;11.82;8.57;;;;;;;;;;5035072;28;20096;-71
2023/06/23 09:18:11;;;;;;;15.52;8.95;;;;;;;;;;5035151;28;20041;-70
2023/06/23 09:20:37;;;;;;;10.13;7.82;;;;;;;;;;5034883;28;20380;-71
2023/06/23 09:23:03;;;;;;;10.30;8.05;;;;;;;;;;5033330;28;20512;-71
2023/06/23 09:25:41;;;;;;;10.73;7.63;;;;;;;;;;5034500;28;20103;-71
2023/06/23 09:28:06;;;;;;;9.27;7.03;;;;;;;;;;5035127;28;20044;-72
2023/06/23 09:30:36;;;;;;;12.13;7.32;;;;;;;;;;5034569;28;20057;-68
2023/06/23 09:33:07;;;;;;;12.73;7.83;;;;;;;;;;5054679;28;20069;-71
2023/06/23 09:35:33;;;;;;;13.85;8.02;;;;;;;;;;5044621;28;20412;-70
2023/06/23 09:38:01;;;;;;;10.45;8.40;;;;;;;;;;5034331;28;20123;-70
2023/06/23 09:40:35;;;;;;;11.40;8.43;;;;;;;;;;5033040;28;20040;-71
2023/06/23 09:43:03;;;;;;;15.75;7.90;;;;;;;;;;5034172;28;20613;-70
2023/06/23 09:45:32;;;;;;;11.05;7.97;;;;;;;;;;5047195;28;20045;-71
2023/06/23 09:47:57;;;;;;;13.88;8.40;;;;;;;;;;5053081;28;20461;-70
2023/06/23 09:50:25;;;;;;;12.20;8.50;;;;;;;;;;5052695;28;20040;-70
2023/06/23 09:53:01;;;;;;;10.10;7.88;;;;;;;;;;5054321;28;20009;-72
2023/06/23 09:55:29;;;;;;;14.70;7.97;;;;;;;;;;5053951;28;20072;-73
2023/06/23 09:57:56;;;;;;;8.75;7.35;;;;;;;;;;5052602;28;20208;-72
2023/06/23 10:00:32;;;;;;;10.00;7.22;;;;;;;;;;5053934;28;20062;-71
2023/06/23 10:03:00;;;;;;;13.40;8.25;;;;;;;;;;5053108;28;20052;-72
2023/06/23 10:05:33;;;;;;;13.18;8.05;;;;;;;;;;5043790;28;20293;-70
2023/06/23 10:08:19;;;;;;;15.63;7.32;;;;;;;;;;5032456;28;20039;-70
2023/06/23 10:10:58;;;;;;;13.80;7.78;;;;;;;;;;5033518;28;20029;-71
2023/06/23 10:13:26;;;;;;;13.20;8.23;;;;;;;;;;5033759;28;20022;-72
2023/06/23 10:15:52;;;;;;;11.48;7.57;;;;;;;;;;5033923;28;20167;-74
2023/06/23 10:18:19;;;;;;;11.57;7.43;;;;;;;;;;5033312;28;20486;-75
2023/06/23 10:20:44;;;;;;;10.15;7.40;;;;;;;;;;5037675;28;20021;-75
2023/06/23 10:23:10;;;;;;;14.25;7.78;;;;;;;;;;5053676;28;20028;-72
2023/06/23 10:25:36;;;;;;;11.43;7.07;;;;;;;;;;5052328;28;20013;-72
2023/06/23 10:28:05;;;;;;;11.32;7.75;;;;;;;;;;5052308;28;20021;-71
2023/06/23 10:30:30;;;;;;;15.45;8.00;;;;;;;;;;5053637;28;20021;-71
2023/06/23 10:32:56;;;;;;;12.17;6.87;;;;;;;;;;5053736;28;20031;-72
2023/06/23 10:35:23;;;;;;;11.88;6.25;;;;;;;;;;5046938;28;20016;-71
2023/06/23 10:37:49;;;;;;;9.80;6.00;;;;;;;;;;5047214;28;20042;-72
2023/06/23 10:40:20;;;;;;;7.95;5.70;;;;;;;;;;5047789;28;20351;-71
2023/06/23 10:42:50;;;;;;;12.60;5.70;;;;;;;;;;5052808;28;20044;-71
2023/06/23 10:45:16;;;;;;;11.02;6.15;;;;;;;;;;5049891;28;20083;-75
2023/06/23 10:47:42;;;;;;;8.57;5.30;;;;;;;;;;5040523;28;20033;-73
2023/06/23 10:50:09;;;;;;;9.98;5.43;;;;;;;;;;5041129;28;20035;-73
2023/06/23 10:52:34;;;;;;;9.98;5.53;;;;;;;;;;5051692;28;20094;-72
2023/06/23 10:55:01;;;;;;;15.82;6.25;;;;;;;;;;5037875;28;20018;-74
2023/06/23 10:57:28;;;;;;;9.27;5.47;;;;;;;;;;5032908;28;20044;-70
2023/06/23 11:00:05;;;;;;;8.43;5.50;;;;;;;;;;5032682;28;20060;-73
2023/06/23 11:02:51;;;;;;;11.63;6.57;;;;;;;;;;5032399;28;20018;-73
2023/06/23 11:05:17;;;;;;;13.00;6.00;;;;;;;;;;5031826;28;20029;-74
2023/06/23 11:08:01;;;;;;;15.60;6.75;;;;;;;;;;5032416;28;20033;-74
2023/06/23 11:10:44;;;;;;;17.50;6.93;;;;;;;;;;5038479;28;20184;-75
2023/06/23 11:13:15;;;;;;;13.80;6.43;;;;;;;;;;5052461;28;20029;-73
2023/06/23 11:15:41;;;;;;;9.85;5.90;;;;;;;;;;5052118;28;20470;-70
2023/06/23 11:18:06;;;;;;;10.48;5.60;;;;;;;;;;5051580;28;20040;-71
2023/06/23 11:20:42;;;;;;;14.60;5.78;;;;;;;;;;5043205;28;20021;-71
2023/06/23 11:23:12;;;;;;;14.07;5.95;;;;;;;;;;5030948;28;20359;-70
2023/06/23 11:25:41;;;;;;;15.73;4.97;;;;;;;;;;5032623;28;20084;-72
2023/06/23 11:28:25;;;;;;;12.27;4.90;;;;;;;;;;5032140;28;20413;-71
2023/06/23 11:31:10;;;;;;;12.05;5.55;;;;;;;;;;5032143;28;20021;-70
2023/06/23 11:33:39;;;;;;;10.70;5.70;;;;;;;;;;5031789;28;20026;-72
2023/06/23 11:36:06;;;;;;;12.30;6.60;;;;;;;;;;5031932;28;20038;-73
2023/06/23 11:38:34;;;;;;;11.52;6.35;;;;;;;;;;5032469;28;20381;-73
2023/06/23 11:41:01;;;;;;;9.25;6.35;;;;;;;;;;5032158;28;20022;-73
2023/06/23 11:43:42;;;;;;;9.98;6.63;;;;;;;;;;5032106;28;20026;-72
2023/06/23 11:46:15;;;;;;;9.77;7.05;;;;;;;;;;5032219;28;20101;-73
2023/06/23 11:48:41;;;;;;;10.40;5.65;;;;;;;;;;5043705;28;20029;-74
2023/06/23 11:51:13;;;;;;;11.65;5.05;;;;;;;;;;5035677;28;20017;-73
2023/06/23 11:53:42;;;;;;;7.72;3.92;;;;;;;;;;5030886;28;20053;-72
2023/06/23 11:56:09;;;;;;;13.25;4.13;;;;;;;;;;5014841;28;20471;-74
2023/06/23 11:58:34;;;;;;;7.75;4.22;;;;;;;;;;5031980;28;20041;-73
2023/06/23 12:01:04;;;;;;;13.52;4.70;;;;;;;;;;5032253;28;20489;-73
2023/06/23 12:03:30;;;;;;;7.32;3.75;;;;;;;;;;5035722;28;20120;-74
2023/06/23 12:06:00;;;;;;;9.07;4.43;;;;;;;;;;5045572;28;20473;-70
2023/06/23 12:08:27;;;;;;;10.23;4.57;;;;;;;;;;5051519;28;20093;-77
2023/06/23 12:10:53;;;;;;;7.20;4.10;;;;;;;;;;5052269;28;20028;-77
2023/06/23 12:13:19;;;;;;;13.40;5.15;;;;;;;;;;5052082;28;20116;-77
2023/06/23 12:15:45;;;;;;;10.27;4.47;;;;;;;;;;5050903;28;20395;-76
2023/06/23 12:18:11;;;;;;;7.47;3.97;;;;;;;;;;5052228;28;20069;-77
2023/06/23 12:20:37;;;;;;;8.88;4.70;;;;;;;;;;5051697;28;20031;-76
2023/06/23 12:23:03;;;;;;;8.52;4.80;;;;;;;;;;5051771;28;20116;-74
2023/06/23 12:25:37;;;;;;;9.27;4.00;;;;;;;;;;5052114;28;20088;-73
2023/06/23 12:28:03;;;;;;;9.50;4.82;;;;;;;;;;5054326;28;20047;-75
2023/06/23 12:30:40;;;;;;;9.10;4.65;;;;;;;;;;5054997;28;20025;-74
2023/06/23 12:33:11;;;;;;;7.82;4.28;;;;;;;;;;5055523;28;20105;-77
2023/06/23 12:35:37;;;;;;;10.32;4.40;;;;;;;;;;5037888;28;20033;-79
2023/06/23 12:38:06;;;;;;;11.50;4.43;;;;;;;;;;5054153;28;20112;-80
2023/06/23 12:40:33;;;;;;;6.18;4.15;;;;;;;;;;5055427;28;20025;-80
2023/06/23 12:43:04;;;;;;;10.25;3.80;;;;;;;;;;5053631;28;20028;-77
2023/06/23 12:45:29;;;;;;;10.25;4.43;;;;;;;;;;5054150;28;20025;-78
2023/06/23 12:47:59;;;;;;;8.40;4.00;;;;;;;;;;5039605;28;20571;-78
2023/06/23 12:50:37;;;;;;;11.48;4.38;;;;;;;;;;5073052;28;20631;-76
2023/06/23 12:53:03;;;;;;;9.77;4.40;;;;;;;;;;5072458;28;20112;-76
2023/06/23 12:55:28;;;;;;;14.38;4.93;;;;;;;;;;5074249;28;20095;-79
2023/06/23 12:57:59;;;;;;;7.47;4.17;;;;;;;;;;5073579;28;20354;-77
2023/06/23 13:00:31;;;;;;;14.90;5.97;;;;;;;;;;5074163;28;20039;-78
2023/06/23 13:02:57;;;;;;;10.48;6.15;;;;;;;;;;5073796;28;20139;-80
2023/06/23 13:05:23;;;;;;;10.80;7.28;;;;;;;;;;5074195;28;20032;-83
2023/06/23 13:07:49;;;;;;;16.27;7.70;;;;;;;;;;5074106;28;20461;-83
2023/06/23 13:10:15;;;;;;;11.45;6.97;;;;;;;;;;5067273;28;20268;-73
2023/06/23 13:12:40;;;;;;;7.97;6.53;;;;;;;;;;5039937;28;20086;-72
2023/06/23 13:15:05;;;;;;;10.80;7.50;;;;;;;;;;5034943;28;20032;-73
2023/06/23 13:17:32;;;;;;;8.48;7.47;;;;;;;;;;5035194;28;20103;-73
2023/06/23 13:19:57;;;;;;;13.85;9.00;;;;;;;;;;5034906;28;20089;-74
2023/06/23 13:22:22;;;;;;;12.88;7.90;;;;;;;;;;5033777;28;20490;-71
2023/06/23 13:24:50;;;;;;;13.20;8.13;;;;;;;;;;5034629;28;20025;-73
2023/06/23 13:27:17;;;;;;;13.32;7.00;;;;;;;;;;5034704;28;20402;-71
2023/06/23 13:29:45;;;;;;;9.18;7.40;;;;;;;;;;5034312;28;20021;-72
2023/06/23 13:32:13;;;;;;;10.45;7.00;;;;;;;;;;5034816;28;20051;-73
2023/06/23 13:34:39;;;;;;;12.20;7.80;;;;;;;;;;5035150;28;20108;-74
2023/06/23 13:37:07;;;;;;;12.30;7.72;;;;;;;;;;5033539;28;20087;-74
2023/06/23 13:39:34;;;;;;;12.43;7.70;;;;;;;;;;5034991;28;20026;-76
2023/06/23 13:42:04;;;;;;;12.98;7.97;;;;;;;;;;5034656;28;20021;-74
2023/06/23 13:44:30;;;;;;;10.90;7.50;;;;;;;;;;5035419;28;20028;-75
2023/06/23 13:47:16;;;;;;;8.57;7.57;;;;;;;;;;5033836;28;20022;-78
2023/06/23 13:49:42;;;;;;;12.68;7.88;;;;;;;;;;5034426;28;20034;-75
2023/06/23 13:52:09;;;;;;;10.52;7.55;;;;;;;;;;5034270;28;20076;-73
2023/06/23 13:54:35;;;;;;;14.52;7.70;;;;;;;;;;5032256;28;20113;-72
2023/06/23 13:57:01;;;;;;;7.93;7.13;;;;;;;;;;5032360;28;20482;-75
2023/06/23 13:59:27;;;;;;;10.97;7.73;;;;;;;;;;5032121;28;20151;-75
2023/06/23 14:01:52;;;;;;;9.70;7.55;;;;;;;;;;5030434;28;20333;-73
2023/06/23 14:04:19;;;;;;;11.63;7.77;;;;;;;;;;5031775;28;20053;-74
2023/06/23 14:06:44;;;;;;;14.20;7.25;;;;;;;;;;5031675;28;20303;-73
2023/06/23 14:09:11;;;;;;;11.52;8.32;;;;;;;;;;5032944;28;20072;-74
2023/06/23 14:11:37;;;;;;;10.55;7.75;;;;;;;;;;5034025;28;20033;-73
2023/06/23 14:14:03;;;;;;;9.20;7.95;;;;;;;;;;5033118;28;20056;-74
2023/06/23 14:16:29;;;;;;;9.70;7.28;;;;;;;;;;5033094;28;20043;-74
2023/06/23 14:18:54;;;;;;;9.50;7.40;;;;;;;;;;5032766;28;20079;-74
2023/06/23 14:21:21;;;;;;;10.10;7.88;;;;;;;;;;5032586;28;20024;-74
2023/06/23 14:23:46;;;;;;;9.88;8.68;;;;;;;;;;5032637;28;20023;-74
2023/06/23 14:26:13;;;;;;;13.35;9.35;;;;;;;;;;5032701;28;20402;-73
2023/06/23 14:28:41;;;;;;;11.48;9.45;;;;;;;;;;5033119;28;20474;-78
2023/06/23 14:31:07;;;;;;;14.30;9.55;;;;;;;;;;5035520;28;20099;-75
2023/06/23 14:33:33;;;;;;;12.73;9.25;;;;;;;;;;5036073;28;20454;-74
2023/06/23 14:36:09;;;;;;;11.98;9.55;;;;;;;;;;5039687;28;20036;-75
2023/06/23 14:38:35;;;;;;;12.65;9.68;;;;;;;;;;5015456;28;20017;-73
2023/06/23 14:41:00;;;;;;;12.82;9.65;;;;;;;;;;5033247;28;20105;-73
2023/06/23 14:43:26;;;;;;;12.97;11.13;;;;;;;;;;5033301;28;20047;-74